Airfield :
LOGIN :

Register | Disclaimer

   EN    FR    IT 

 










Legend :    VFR   Marginal VFR   IFR   Intensive IFR   Very Intensive IFR
Visi :
Ceiling :
>= 8 km
>= 3000ft
5 to 8 km
1000 to 3000 ft
1500m to 5 km
500 to 1000 ft
800 to 1500m
200 to 500 ft
< 800m
< 200 ft
Symbols :   Thunderstorms  Fog  Heavy snow  Heavy precipitations  Wind > 20 kt
SIGMETs :     Misc.  Thunderstorms  Icing  Turbulence  Mountain Waves  Volcanic Ashes






- Airport Elevation : 299 ft
- IATA code : EDM


LFRI - La Roche Sur Yon - Les Ajoncs

CURRENT METAR :
  • 260230Z AUTO 18003KT 150V220 0900 0650 R28/1500N FG FEW003 BKN072 07/07 Q1016

EXPIRED METARs :
  • 260200Z AUTO 18004KT 0750 0700 R28/0900U FG SCT007/// BKN016/// BKN043/// ///CB 07/07 Q1016
  • 260130Z AUTO 18004KT 0600 0450 R28/0900U FG VV/// ///CB 07/06 Q1016
  • 260100Z AUTO 18004KT 2400 0750 R28/P2000 BCFG SCT002/// SCT007/// BKN034/// ///CB 07/07 Q1016
  • 260030Z AUTO 19005KT 5000 BR SCT011 BKN020 BKN100 07/07 Q1016
  • 260000Z AUTO 19005KT 6000 FEW003 BKN009 BKN025 08/08 Q1016

TAF TAF LFRI
Valid from the 25 at 18:00 until the 26 at 18:00 UTC


251700Z 2518/2618 16007KT CAVOK
TEMPO 2518/2612 3000 -RADZ BKN008
PROB30
TEMPO 2521/2606 BKN004
BECMG 2610/2612 22012KT
BECMG 2616/2618 3000 RA OVC010



MET'MAP, your aeronautical weather chart ! - Copyright ORBIFLY December 2007 - Disclaimer

ORBIFLY MET'MAP TEAM :

Programming & Development : Alexandra Zaïnal
Concept & original design : Baudouin d'Aumeries
Assistance for programming : Marc-Olivier Méhu
Technical & hardware support : Manuel Goepfert

Contact : metmap@orbifly.com




SOURCES & CREDITS :

   NOAA